Time;durP1;ratioP1;P1;durP2;ratioP2;P2;SDS_P1;SDS_P2;PMS_P1;PMS_P2;Temp;Humidity;BMP_temperature;BMP_pressure;BME280_temperature;BME280_humidity;BME280_pressure;Samples;Min_cycle;Max_cycle;Signal;HPM_P1;HPM_P2
2023/10/22 00:01:51;;;;;;;2.87;2.60;;;;;;;15.79;59.47;97734.25;7139352;27;20204;-79
2023/10/22 00:05:12;;;;;;;4.23;2.30;;;;;;;15.81;60.11;97762.00;7138814;27;20327;-78
2023/10/22 00:08:34;;;;;;;2.87;2.50;;;;;;;15.97;59.21;97766.41;7135849;27;20260;-78
2023/10/22 00:11:55;;;;;;;3.17;2.30;;;;;;;15.82;59.72;97763.63;7137185;27;20342;-78
2023/10/22 00:15:18;;;;;;;3.00;2.17;;;;;;;15.40;60.56;97747.31;7138332;27;20239;-79
2023/10/22 00:18:40;;;;;;;3.60;2.53;;;;;;;15.72;59.95;97777.97;7139220;27;20309;-78
2023/10/22 00:22:01;;;;;;;2.93;2.23;;;;;;;15.67;60.12;97780.66;7139082;27;20234;-78
2023/10/22 00:25:23;;;;;;;3.93;2.23;;;;;;;15.68;59.89;97786.94;7138424;27;20222;-78
2023/10/22 00:28:44;;;;;;;5.20;2.20;;;;;;;15.47;60.39;97758.81;7129934;27;20258;-79
2023/10/22 00:32:07;;;;;;;3.70;2.20;;;;;;;15.62;59.87;97783.34;7139184;27;20346;-79
2023/10/22 00:35:29;;;;;;;2.60;2.40;;;;;;;15.57;59.75;97790.66;7140534;27;20294;-79
2023/10/22 00:38:50;;;;;;;4.17;2.30;;;;;;;15.59;59.82;97788.47;7140188;27;20217;-79
2023/10/22 00:42:12;;;;;;;3.13;2.23;;;;;;;15.17;59.89;97750.38;7114037;27;20285;-78
2023/10/22 00:45:37;;;;;;;3.83;2.30;;;;;;;15.35;60.45;97798.09;7130747;27;20643;-78
2023/10/22 00:49:00;;;;;;;2.50;2.30;;;;;;;15.42;60.00;97794.06;7135003;27;20197;-79
2023/10/22 00:52:21;;;;;;;3.37;2.10;;;;;;;15.48;59.73;97795.75;7109814;27;20347;-78
2023/10/22 00:55:46;;;;;;;4.07;2.20;;;;;;;15.44;59.77;97794.63;7134331;27;20225;-78
2023/10/22 00:59:07;;;;;;;2.50;2.30;;;;;;;15.32;60.37;97804.00;7139023;27;20235;-79
2023/10/22 01:02:29;;;;;;;3.20;2.20;;;;;;;15.38;60.10;97805.69;7138099;27;20668;-79
2023/10/22 01:05:52;;;;;;;2.10;2.00;;;;;;;15.37;60.06;97802.19;7129970;27;20351;-78
2023/10/22 01:09:13;;;;;;;2.57;2.37;;;;;;;15.34;60.10;97807.31;7148169;27;20247;-79
2023/10/22 01:12:35;;;;;;;2.00;1.90;;;;;;;15.16;60.26;97794.09;7141772;27;20292;-79
2023/10/22 01:15:56;;;;;;;2.53;2.27;;;;;;;15.31;60.41;97803.19;7151199;27;20222;-79
2023/10/22 01:19:18;;;;;;;2.47;2.03;;;;;;;15.35;59.73;97808.94;7144842;27;20272;-79
2023/10/22 01:22:41;;;;;;;2.23;2.00;;;;;;;15.11;60.72;97802.19;7125150;27;20199;-79
2023/10/22 01:26:06;;;;;;;2.03;1.93;;;;;;;15.09;60.22;97820.63;7137663;27;20696;-79
2023/10/22 01:29:27;;;;;;;2.60;2.33;;;;;;;15.09;60.42;97817.91;7138625;27;20195;-79
2023/10/22 01:32:49;;;;;;;2.33;2.13;;;;;;;14.80;61.12;97814.63;7137444;27;20341;-79
2023/10/22 01:36:10;;;;;;;3.10;2.00;;;;;;;15.15;59.94;97812.28;7138223;27;20237;-79
2023/10/22 01:39:32;;;;;;;2.13;2.03;;;;;;;15.05;60.13;97814.09;7138488;27;20365;-78
2023/10/22 01:42:55;;;;;;;2.50;2.30;;;;;;;15.03;60.00;97818.94;7135818;27;20340;-78
2023/10/22 01:46:16;;;;;;;2.30;2.10;;;;;;;14.83;60.09;97819.56;7134222;27;20285;-79
2023/10/22 01:49:38;;;;;;;4.60;2.30;;;;;;;14.78;60.61;97810.53;7142859;27;20282;-79
2023/10/22 01:52:59;;;;;;;2.17;2.03;;;;;;;14.71;60.07;97790.94;7142028;27;20335;-79
2023/10/22 01:56:21;;;;;;;2.53;2.27;;;;;;;14.91;60.03;97813.69;7133689;27;20892;-79
2023/10/22 01:59:44;;;;;;;3.30;2.23;;;;;;;14.58;60.94;97804.91;7139894;27;20358;-79
2023/10/22 02:03:06;;;;;;;3.70;2.20;;;;;;;14.68;60.48;97808.53;7141212;27;20240;-79
2023/10/22 02:06:27;;;;;;;2.87;2.20;;;;;;;14.80;60.52;97821.97;7142382;27;20354;-79
2023/10/22 02:09:49;;;;;;;4.67;2.47;;;;;;;14.36;61.69;97833.94;7133118;27;20288;-79
2023/10/22 02:13:10;;;;;;;2.50;2.03;;;;;;;14.54;61.71;97823.59;7128044;27;20285;-78
2023/10/22 02:16:33;;;;;;;3.00;2.40;;;;;;;14.87;60.51;97833.44;7141820;27;20236;-79
2023/10/22 02:19:55;;;;;;;2.00;1.90;;;;;;;15.04;59.64;97834.16;7142068;27;20313;-79
2023/10/22 02:23:16;;;;;;;5.23;2.20;;;;;;;15.26;58.77;97832.19;7133366;27;20288;-79
2023/10/22 02:26:38;;;;;;;2.97;2.10;;;;;;;15.16;58.85;97840.25;7141802;27;20238;-79
2023/10/22 02:29:59;;;;;;;2.50;2.30;;;;;;;15.06;58.34;97842.88;7141935;27;20289;-78
2023/10/22 02:33:22;;;;;;;3.17;2.23;;;;;;;15.26;57.94;97849.31;7141026;27;20597;-79
2023/10/22 02:36:44;;;;;;;2.20;1.93;;;;;;;15.03;57.90;97855.06;7141734;27;20259;-78
2023/10/22 02:40:09;;;;;;;2.70;2.10;;;;;;;14.52;59.78;97828.44;7140555;27;20233;-78
2023/10/22 02:43:30;;;;;;;2.77;2.30;;;;;;;14.62;59.79;97852.16;7140405;27;20203;-79
2023/10/22 02:46:52;;;;;;;3.67;2.70;;;;;;;14.65;59.90;97860.63;7138735;27;20218;-79
2023/10/22 02:50:15;;;;;;;2.70;2.50;;;;;;;14.39;60.37;97872.22;7141633;27;20652;-79
2023/10/22 02:53:38;;;;;;;3.07;2.73;;;;;;;14.11;61.39;97863.41;7140496;27;20326;-78
2023/10/22 02:56:59;;;;;;;3.97;2.87;;;;;;;14.46;60.81;97880.97;7133939;27;20583;-78
2023/10/22 03:00:21;;;;;;;4.40;2.70;;;;;;;14.45;60.10;97895.59;7141325;27;20254;-78
2023/10/22 03:03:42;;;;;;;2.73;2.53;;;;;;;14.55;59.80;97890.31;7137064;27;20743;-79
2023/10/22 03:07:05;;;;;;;5.17;2.70;;;;;;;14.27;60.22;97900.53;7140542;27;20355;-79
2023/10/22 03:10:27;;;;;;;4.70;2.60;;;;;;;13.85;61.90;97915.56;7140949;27;20343;-79
2023/10/22 03:13:50;;;;;;;5.13;2.43;;;;;;;13.90;61.05;97912.94;7140432;27;20283;-79
2023/10/22 03:17:12;;;;;;;2.70;2.50;;;;;;;13.84;61.28;97890.38;7140309;27;20814;-79
2023/10/22 03:20:33;;;;;;;5.00;3.73;;;;;;;13.75;62.32;97908.09;7139592;27;20222;-79
2023/10/22 03:23:56;;;;;;;6.63;4.07;;;;;;;13.95;61.47;97921.16;7139172;27;20214;-79
2023/10/22 03:27:18;;;;;;;3.13;2.77;;;;;;;13.56;61.43;97876.91;7132061;27;20313;-79
2023/10/22 03:30:39;;;;;;;3.80;2.83;;;;;;;13.85;61.30;97905.56;7134724;27;20230;-78
2023/10/22 03:34:01;;;;;;;3.20;2.90;;;;;;;13.90;60.79;97924.59;7139434;27;20277;-79
2023/10/22 03:37:22;;;;;;;4.13;2.60;;;;;;;14.07;60.54;97921.88;7134366;27;20283;-79
2023/10/22 03:40:45;;;;;;;3.00;2.77;;;;;;;13.95;60.49;97932.81;7136140;27;20218;-78
2023/10/22 03:44:07;;;;;;;2.83;2.57;;;;;;;13.83;60.65;97939.38;7139060;27;20339;-79
2023/10/22 03:47:28;;;;;;;3.10;2.63;;;;;;;13.80;60.73;97931.75;7139456;27;20246;-79
2023/10/22 03:50:50;;;;;;;3.17;2.70;;;;;;;13.49;61.56;97932.28;7139706;27;20326;-78
2023/10/22 03:54:11;;;;;;;5.13;2.63;;;;;;;13.14;62.64;97931.66;7135651;27;23269;-79
2023/10/22 03:57:34;;;;;;;4.63;2.70;;;;;;;12.80;63.01;97943.44;7113521;27;20274;-79
2023/10/22 04:00:56;;;;;;;4.33;2.90;;;;;;;13.01;63.42;97942.78;7126864;27;20249;-79
2023/10/22 04:04:17;;;;;;;3.10;2.80;;;;;;;13.17;62.82;97931.19;7137809;27;20202;-78
2023/10/22 04:07:38;;;;;;;4.47;2.80;;;;;;;13.58;62.01;97936.25;7124956;27;20686;-79
2023/10/22 04:11:01;;;;;;;3.20;2.67;;;;;;;13.56;61.76;97935.66;7139499;27;20289;-79
2023/10/22 04:14:24;;;;;;;4.47;2.90;;;;;;;13.72;61.04;97935.69;7138930;27;20199;-78
2023/10/22 04:17:46;;;;;;;4.03;2.77;;;;;;;13.78;60.98;97937.41;7139261;27;20214;-78
2023/10/22 04:21:13;;;;;;;2.90;2.67;;;;;;;13.46;61.42;97949.84;7141681;27;20233;-79
2023/10/22 04:24:34;;;;;;;4.40;2.80;;;;;;;13.24;62.30;97954.34;7143483;27;20199;-79
2023/10/22 04:27:56;;;;;;;2.70;2.50;;;;;;;13.52;61.94;97954.28;7134356;27;20238;-79
2023/10/22 04:31:19;;;;;;;2.70;2.50;;;;;;;13.23;62.99;97955.38;7149007;27;20191;-78
2023/10/22 04:34:40;;;;;;;3.20;2.90;;;;;;;13.58;61.86;97949.81;7147493;27;20245;-79
2023/10/22 04:38:02;;;;;;;2.80;2.60;;;;;;;13.84;60.95;97946.44;7145686;27;20225;-79
2023/10/22 04:41:25;;;;;;;3.53;2.70;;;;;;;13.40;61.63;97964.38;7140275;27;20285;-78
2023/10/22 04:44:46;;;;;;;3.93;2.80;;;;;;;13.23;62.26;97960.78;7137931;27;20210;-79
2023/10/22 04:48:09;;;;;;;3.53;3.10;;;;;;;12.65;64.06;97978.25;7138320;27;20273;-79
2023/10/22 04:51:31;;;;;;;4.13;2.57;;;;;;;13.33;62.12;97979.13;7138422;27;20604;-79
2023/10/22 04:54:52;;;;;;;6.90;3.00;;;;;;;13.49;61.51;97973.75;7138371;27;20206;-79
2023/10/22 04:58:14;;;;;;;3.30;3.00;;;;;;;13.17;61.20;97974.50;7137417;27;20361;-79
2023/10/22 05:01:35;;;;;;;3.07;2.63;;;;;;;13.09;61.06;97978.41;7139656;27;20270;-79
2023/10/22 05:04:58;;;;;;;2.87;2.60;;;;;;;12.72;62.57;97979.78;7138834;27;20338;-78
2023/10/22 05:08:23;;;;;;;2.67;2.47;;;;;;;12.94;62.35;97979.94;7138396;27;20250;-79
2023/10/22 05:11:44;;;;;;;3.30;2.27;;;;;;;13.20;62.31;97976.69;7137773;27;20206;-79
2023/10/22 05:15:08;;;;;;;3.67;2.50;;;;;;;13.35;60.85;97982.41;7120167;27;20335;-80
2023/10/22 05:18:29;;;;;;;3.73;2.50;;;;;;;12.82;62.58;97985.41;7136884;27;20233;-80
2023/10/22 05:21:52;;;;;;;3.50;2.30;;;;;;;13.44;60.57;97994.47;7136228;27;20219;-80
2023/10/22 05:25:14;;;;;;;5.47;2.73;;;;;;;13.42;60.70;98004.75;7141225;27;20288;-80
2023/10/22 05:28:35;;;;;;;3.20;2.23;;;;;;;13.42;60.64;97996.63;7114299;27;20930;-80
2023/10/22 05:31:57;;;;;;;2.97;2.40;;;;;;;13.85;59.09;97984.13;7139881;27;20194;-81
2023/10/22 05:35:18;;;;;;;2.70;2.50;;;;;;;13.78;59.11;98007.03;7141533;27;20829;-80
2023/10/22 05:38:41;;;;;;;2.83;2.63;;;;;;;13.28;60.50;98016.94;7142593;27;20309;-80
2023/10/22 05:42:03;;;;;;;5.83;2.60;;;;;;;13.47;60.48;98012.97;7123121;27;20222;-79
2023/10/22 05:45:25;;;;;;;8.60;2.73;;;;;;;13.87;59.37;98017.22;7142693;27;20198;-79
2023/10/22 05:48:46;;;;;;;2.93;2.67;;;;;;;13.81;59.03;98029.03;7144250;27;20296;-82
2023/10/22 05:52:08;;;;;;;2.70;2.47;;;;;;;13.26;58.85;98027.16;7133383;27;20227;-83
2023/10/22 05:55:31;;;;;;;3.33;2.27;;;;;;;13.48;59.83;98030.84;7114190;27;20285;-82
2023/10/22 05:58:52;;;;;;;2.30;2.10;;;;;;;13.62;58.85;98029.50;7142507;27;20727;-82
2023/10/22 06:02:14;;;;;;;5.47;2.20;;;;;;;13.83;59.01;98039.63;7142506;27;20304;-82
2023/10/22 06:05:39;;;;;;;3.53;2.20;;;;;;;13.95;58.47;98041.22;7138831;27;20202;-84
2023/10/22 06:09:01;;;;;;;5.50;3.07;;;;;;;14.01;58.52;98047.53;7144997;27;20611;-83
2023/10/22 06:12:24;;;;;;;3.40;2.47;;;;;;;14.13;57.28;98049.13;7144075;27;20290;-85
2023/10/22 06:15:46;;;;;;;2.70;2.43;;;;;;;13.91;57.93;98056.31;7144395;27;20221;-81
2023/10/22 06:19:07;;;;;;;7.47;2.67;;;;;;;14.20;57.19;98063.34;7145189;27;20278;-81
2023/10/22 06:22:29;;;;;;;5.10;2.27;;;;;;;14.30;57.38;98063.53;7133269;27;20309;-82
2023/10/22 06:25:50;;;;;;;3.07;2.30;;;;;;;14.63;56.91;98070.84;7143794;27;20355;-82
2023/10/22 06:29:13;;;;;;;5.67;2.67;;;;;;;14.61;56.79;98079.22;7142567;27;20226;-83
2023/10/22 06:32:35;;;;;;;4.20;2.53;;;;;;;14.60;56.93;98076.75;7142857;27;20688;-83
2023/10/22 06:35:59;;;;;;;3.73;2.50;;;;;;;15.10;55.96;98085.63;7142874;27;20321;-87
2023/10/22 06:39:20;;;;;;;3.60;2.87;;;;;;;14.49;55.70;98086.63;7136158;27;20705;-84
2023/10/22 06:42:42;;;;;;;3.23;2.67;;;;;;;13.86;57.32;98069.78;7138965;27;20313;-83
2023/10/22 06:46:05;;;;;;;5.27;2.80;;;;;;;14.18;57.66;98089.88;7143414;27;20332;-82
2023/10/22 06:49:26;;;;;;;4.33;2.57;;;;;;;14.52;57.58;98098.88;7143297;27;20226;-84
2023/10/22 06:52:48;;;;;;;4.93;3.93;;;;;;;15.29;55.64;98092.41;7127285;27;20203;-84
2023/10/22 06:56:11;;;;;;;2.47;2.23;;;;;;;15.98;54.34;98095.13;7108046;27;20310;-83
2023/10/22 06:59:33;;;;;;;3.10;2.70;;;;;;;16.42;51.57;98096.69;7132298;27;20203;-86
2023/10/22 07:02:56;;;;;;;4.20;2.70;;;;;;;16.47;52.03;98068.69;7145075;27;20240;-85
2023/10/22 07:06:17;;;;;;;3.23;2.30;;;;;;;17.28;50.49;98107.06;7145788;27;20743;-84
2023/10/22 07:09:39;;;;;;;4.00;2.30;;;;;;;17.11;49.67;98098.25;7147001;27;20291;-83
2023/10/22 07:13:01;;;;;;;6.20;2.50;;;;;;;17.59;48.80;98100.72;7126028;27;20735;-84
2023/10/22 07:16:22;;;;;;;4.07;1.83;;;;;;;17.71;47.96;98103.22;7135520;27;20591;-84
2023/10/22 07:19:45;;;;;;;2.00;1.90;;;;;;;17.93;47.45;98098.38;7118666;27;20288;-81
2023/10/22 07:23:07;;;;;;;4.93;2.00;;;;;;;18.53;46.78;98101.22;7123128;27;20204;-82
2023/10/22 07:26:28;;;;;;;3.37;1.70;;;;;;;18.82;44.74;98103.09;7135594;27;20218;-81
2023/10/22 07:29:50;;;;;;;3.60;2.13;;;;;;;18.84;44.70;98094.66;7135620;27;20216;-82
2023/10/22 07:33:11;;;;;;;3.07;1.80;;;;;;;18.68;45.11;98117.59;7135626;27;20226;-81
2023/10/22 07:36:34;;;;;;;3.70;1.80;;;;;;;19.27;44.46;98110.47;7151107;27;20621;-81
2023/10/22 07:39:56;;;;;;;2.20;1.77;;;;;;;19.61;43.20;98138.78;7149496;27;20218;-83
2023/10/22 07:43:19;;;;;;;2.10;1.60;;;;;;;19.90;42.67;98142.50;7150418;27;20203;-82
2023/10/22 07:46:41;;;;;;;3.67;1.97;;;;;;;20.47;41.21;98134.53;7158357;27;20218;-82
2023/10/22 07:50:03;;;;;;;1.93;1.73;;;;;;;20.93;40.17;98138.59;7157295;27;20198;-82
2023/10/22 07:53:26;;;;;;;4.03;1.53;;;;;;;21.06;40.01;98140.66;7140848;27;20194;-81
2023/10/22 07:56:47;;;;;;;3.00;1.60;;;;;;;21.81;38.73;98130.56;7142903;27;20231;-82
2023/10/22 08:00:10;;;;;;;5.63;1.80;;;;;;;22.17;37.35;98147.38;7140792;27;20360;-82
2023/10/22 08:03:31;;;;;;;2.43;1.50;;;;;;;21.91;37.97;98151.56;7140326;27;20254;-82
2023/10/22 08:06:53;;;;;;;3.83;1.90;;;;;;;22.24;37.76;98148.66;7146723;27;20216;-82
2023/10/22 08:10:16;;;;;;;1.57;1.43;;;;;;;22.65;35.42;98132.44;7130921;27;20226;-82
2023/10/22 08:13:38;;;;;;;2.73;1.93;;;;;;;21.48;37.64;98144.38;7131765;27;20208;-84
2023/10/22 08:17:00;;;;;;;3.07;2.30;;;;;;;22.21;38.32;98140.19;7152491;27;20697;-82
2023/10/22 08:20:21;;;;;;;2.47;2.27;;;;;;;24.44;34.10;98163.16;7151423;27;20265;-81
2023/10/22 08:23:43;;;;;;;3.17;1.63;;;;;;;25.53;32.77;98161.59;7146289;27;20205;-82
2023/10/22 08:27:06;;;;;;;3.13;1.57;;;;;;;24.56;32.68;98166.19;7150544;27;20249;-82
2023/10/22 08:30:28;;;;;;;2.80;1.53;;;;;;;24.74;31.60;98080.59;7150383;27;20206;-82
2023/10/22 08:33:49;;;;;;;2.50;1.33;;;;;;;25.91;30.46;98166.41;7148203;27;20203;-82
2023/10/22 08:37:11;;;;;;;2.50;1.70;;;;;;;26.24;30.36;98169.59;7148612;27;20608;-82
2023/10/22 08:40:33;;;;;;;2.90;1.43;;;;;;;26.93;28.90;98171.31;7142464;27;20243;-82
2023/10/22 08:43:58;;;;;;;2.17;1.23;;;;;;;27.49;28.34;98179.44;7146443;27;20307;-82
2023/10/22 08:47:19;;;;;;;2.93;1.40;;;;;;;27.70;27.72;98181.16;7119308;27;20843;-82
2023/10/22 08:50:44;;;;;;;2.70;1.30;;;;;;;27.27;28.22;98188.75;7118705;27;20643;-83
2023/10/22 08:54:08;;;;;;;3.67;1.80;;;;;;;26.66;29.13;98183.50;7120565;27;20208;-82
2023/10/22 08:57:30;;;;;;;2.87;1.97;;;;;;;25.98;30.39;98196.31;7148118;27;20224;-82
2023/10/22 09:00:53;;;;;;;4.10;1.80;;;;;;;24.45;33.19;98200.63;7148982;27;20310;-81
2023/10/22 09:04:14;;;;;;;3.40;1.60;;;;;;;21.25;37.05;98209.03;7140392;27;20224;-79
2023/10/22 09:07:49;;;;;;;2.63;1.77;;;;;;;21.28;37.66;98192.00;7139822;27;20227;-83
2023/10/22 09:11:14;;;;;;;4.50;1.57;;;;;;;21.52;38.16;98212.06;7139101;27;20661;-80
2023/10/22 09:14:36;;;;;;;4.63;1.70;;;;;;;22.20;37.63;98212.69;7142635;27;20199;-82
2023/10/22 09:18:03;;;;;;;2.17;1.60;;;;;;;21.42;37.20;98190.22;7121680;27;20356;-85
2023/10/22 09:21:25;;;;;;;3.53;1.73;;;;;;;21.28;38.27;98216.69;7118129;27;20233;-83
2023/10/22 09:24:49;;;;;;;3.70;1.77;;;;;;;20.71;38.47;98190.25;7135098;27;20206;-83
2023/10/22 09:28:24;;;;;;;2.47;1.20;;;;;;;20.59;39.59;98209.78;7125814;27;20214;-82
2023/10/22 09:31:49;;;;;;;5.93;1.80;;;;;;;20.34;39.84;98207.19;7121211;27;20225;-81
2023/10/22 09:35:15;;;;;;;4.93;1.80;;;;;;;21.53;37.06;98205.47;7121620;27;20225;-82
2023/10/22 09:38:47;;;;;;;3.23;2.40;;;;;;;21.82;37.07;98195.31;7122339;27;20591;-84
2023/10/22 09:42:09;;;;;;;3.33;1.80;;;;;;;21.38;37.61;98200.16;7129327;27;20317;-84
2023/10/22 09:45:31;;;;;;;7.67;1.97;;;;;;;21.66;36.59;98199.28;7131188;27;20191;-82
2023/10/22 09:48:54;;;;;;;3.00;1.70;;;;;;;21.34;36.92;98171.66;7118656;27;20203;-81
2023/10/22 09:52:17;;;;;;;5.30;2.03;;;;;;;21.13;37.58;98188.59;7129872;27;20346;-82
2023/10/22 09:55:40;;;;;;;6.60;1.90;;;;;;;21.48;37.92;98212.94;7146621;27;20281;-82
2023/10/22 09:59:04;;;;;;;4.57;2.00;;;;;;;21.87;36.30;98216.38;7145752;27;20732;-83
2023/10/22 10:02:26;;;;;;;4.03;1.80;;;;;;;21.75;36.94;98194.84;7141918;27;20228;-84
2023/10/22 10:05:48;;;;;;;5.10;1.90;;;;;;;21.59;37.02;98204.31;7141936;27;20672;-82
2023/10/22 10:09:11;;;;;;;3.90;1.50;;;;;;;21.77;36.54;98211.81;7132786;27;20786;-83
2023/10/22 10:12:36;;;;;;;2.80;1.60;;;;;;;22.02;36.75;98213.47;7145658;27;20290;-83
2023/10/22 10:15:59;;;;;;;4.77;1.97;;;;;;;21.70;36.61;98210.53;7146499;27;20227;-84
2023/10/22 10:19:22;;;;;;;2.63;1.40;;;;;;;22.24;35.82;98217.31;7145889;27;20199;-83
2023/10/22 10:22:44;;;;;;;4.87;1.90;;;;;;;22.53;35.65;98206.25;7145679;27;20230;-82
2023/10/22 10:26:38;;;;;;;5.77;2.00;;;;;;;22.85;35.11;98220.06;7143214;27;20369;-82
2023/10/22 10:30:18;;;;;;;3.87;1.73;;;;;;;22.72;34.98;98223.56;7130053;27;20227;-81
2023/10/22 10:34:00;;;;;;;3.07;1.83;;;;;;;22.79;35.17;98215.75;7137340;27;20644;-81
2023/10/22 10:37:26;;;;;;;4.33;1.60;;;;;;;22.44;34.01;98178.63;7141467;27;20758;-81
2023/10/22 10:40:48;;;;;;;4.83;2.17;;;;;;;22.44;35.26;98228.09;7139288;27;20396;-82
2023/10/22 10:44:10;;;;;;;4.90;1.73;;;;;;;21.78;35.78;98235.41;7125607;27;20204;-81
2023/10/22 10:47:34;;;;;;;4.43;1.70;;;;;;;21.12;36.48;98228.06;7117185;27;20211;-80
2023/10/22 10:51:17;;;;;;;3.37;1.70;;;;;;;21.36;36.48;98227.03;7116724;27;20196;-80
2023/10/22 10:54:39;;;;;;;6.10;2.00;;;;;;;20.99;37.25;98181.31;7115385;27;20188;-81
2023/10/22 10:58:01;;;;;;;3.77;1.77;;;;;;;21.83;36.45;98215.34;7111291;27;20258;-81
2023/10/22 11:01:23;;;;;;;3.37;1.77;;;;;;;21.28;35.73;98224.06;7138021;27;20222;-81
2023/10/22 11:04:46;;;;;;;4.47;1.67;;;;;;;21.06;37.09;98217.44;7145655;27;20204;-81
2023/10/22 11:08:12;;;;;;;5.30;1.63;;;;;;;21.81;36.02;98223.88;7140019;27;20292;-82
2023/10/22 11:11:34;;;;;;;4.33;2.00;;;;;;;22.03;35.64;98198.63;7148915;27;20640;-83
2023/10/22 11:14:56;;;;;;;3.63;1.73;;;;;;;22.03;35.92;98180.25;7126565;27;20349;-81
2023/10/22 11:18:17;;;;;;;6.03;2.10;;;;;;;23.10;34.56;98198.50;7124943;27;20311;-82
2023/10/22 11:21:40;;;;;;;3.97;1.97;;;;;;;21.71;35.52;98206.69;7116531;27;20351;-82
2023/10/22 11:25:03;;;;;;;4.80;2.30;;;;;;;22.02;36.16;98202.50;7119437;27;20238;-82
2023/10/22 11:28:24;;;;;;;4.00;2.00;;;;;;;22.94;34.45;98204.50;7121435;27;20313;-82
2023/10/22 11:31:53;;;;;;;5.03;1.80;;;;;;;23.15;33.30;98198.41;7112953;27;20234;-82
2023/10/22 11:35:14;;;;;;;3.00;1.70;;;;;;;22.13;34.05;98204.00;7111691;27;20214;-82
2023/10/22 11:38:42;;;;;;;4.80;1.93;;;;;;;22.31;34.91;98186.75;7112757;27;20223;-82
2023/10/22 11:42:07;;;;;;;3.17;1.70;;;;;;;22.28;34.40;98155.19;7112323;27;20306;-82
2023/10/22 11:45:31;;;;;;;4.73;2.10;;;;;;;22.87;33.51;98182.09;7124861;27;20210;-83
2023/10/22 11:48:53;;;;;;;4.33;2.00;;;;;;;23.65;32.67;98166.47;7140887;27;20212;-83
2023/10/22 11:52:17;;;;;;;4.27;1.80;;;;;;;23.96;33.09;98186.78;7140617;27;20657;-82
2023/10/22 11:55:40;;;;;;;4.30;1.97;;;;;;;22.05;33.91;98180.75;7140037;27;20200;-84
2023/10/22 11:59:02;;;;;;;3.63;1.83;;;;;;;22.71;33.29;98205.44;7140629;27;20235;-83
2023/10/22 12:02:23;;;;;;;4.13;1.70;;;;;;;23.19;33.57;98204.97;7140001;27;20722;-83
2023/10/22 12:05:45;;;;;;;4.13;1.70;;;;;;;21.88;34.15;98141.16;7129350;27;20228;-84
2023/10/22 12:09:06;;;;;;;6.83;1.83;;;;;;;22.29;34.65;98197.19;7132621;27;20346;-82
2023/10/22 12:12:29;;;;;;;4.17;2.00;;;;;;;23.30;33.46;98200.91;7140185;27;20231;-83
2023/10/22 12:15:51;;;;;;;2.27;1.60;;;;;;;23.33;32.74;98185.75;7141564;27;20311;-83
2023/10/22 12:19:12;;;;;;;3.60;1.47;;;;;;;23.66;32.05;98193.66;7140872;27;20342;-83
2023/10/22 12:22:33;;;;;;;4.47;1.77;;;;;;;24.04;31.74;98211.69;7139058;27;20320;-83
2023/10/22 12:25:55;;;;;;;3.80;1.87;;;;;;;22.76;32.15;98208.94;7112322;27;20223;-84
2023/10/22 12:29:18;;;;;;;4.50;1.80;;;;;;;22.25;32.49;98139.28;7120259;27;20243;-82
2023/10/22 12:32:39;;;;;;;4.20;2.10;;;;;;;23.58;31.78;98171.53;7112535;27;20295;-81
2023/10/22 12:36:02;;;;;;;2.20;1.10;;;;;;;24.46;30.50;98200.31;7111036;27;20260;-84
2023/10/22 12:39:25;;;;;;;2.47;1.30;;;;;;;23.97;31.60;98197.50;7065343;27;20212;-82
2023/10/22 12:42:47;;;;;;;3.83;1.67;;;;;;;23.58;31.22;98182.53;7083913;27;20224;-82
2023/10/22 12:46:10;;;;;;;4.40;1.60;;;;;;;23.71;32.15;98198.28;7100960;27;20270;-82
2023/10/22 12:49:31;;;;;;;3.37;2.00;;;;;;;23.56;31.17;98191.13;7111305;27;20301;-82
2023/10/22 12:52:55;;;;;;;2.93;1.67;;;;;;;23.62;31.52;98203.66;7110173;27;20784;-81
2023/10/22 12:56:17;;;;;;;2.97;1.50;;;;;;;23.99;30.52;98206.28;7110127;27;20230;-81
2023/10/22 12:59:39;;;;;;;3.53;1.77;;;;;;;24.58;30.85;98213.59;7110297;27;20215;-81
2023/10/22 13:03:02;;;;;;;3.13;1.80;;;;;;;23.33;31.04;98178.31;7110274;27;20224;-81
2023/10/22 13:06:23;;;;;;;4.40;1.80;;;;;;;22.93;31.98;98150.66;7109481;27;20257;-82
2023/10/22 13:09:45;;;;;;;3.73;2.00;;;;;;;23.33;31.37;98216.00;7098264;27;20678;-80
2023/10/22 13:13:06;;;;;;;2.73;1.60;;;;;;;23.95;31.07;98208.00;7099365;27;20286;-82
2023/10/22 13:16:28;;;;;;;4.53;1.70;;;;;;;23.58;30.49;98212.81;7085838;27;20239;-81
2023/10/22 13:19:51;;;;;;;3.53;1.60;;;;;;;24.42;29.38;98210.31;7081668;28;20442;-81
2023/10/22 13:23:14;;;;;;;4.57;1.67;;;;;;;23.85;30.75;98215.63;7080568;28;20358;-85
2023/10/22 13:26:35;;;;;;;3.33;1.83;;;;;;;23.55;30.46;98214.22;7081733;27;20277;-83
2023/10/22 13:29:57;;;;;;;4.03;1.80;;;;;;;23.29;31.04;98203.97;7103779;27;20322;-82
2023/10/22 13:33:18;;;;;;;4.23;1.97;;;;;;;22.67;31.54;98218.94;7108133;27;20602;-82
2023/10/22 13:36:41;;;;;;;2.00;1.53;;;;;;;23.02;31.35;98199.16;7111702;27;20291;-82
2023/10/22 13:40:04;;;;;;;3.33;1.90;;;;;;;22.71;32.01;98210.94;7113704;27;20274;-83
2023/10/22 13:43:25;;;;;;;3.63;1.70;;;;;;;23.13;32.07;98216.34;7116744;27;20679;-82
2023/10/22 13:46:47;;;;;;;4.40;2.03;;;;;;;23.35;31.62;98213.75;7112381;27;20247;-82
2023/10/22 13:50:09;;;;;;;5.30;1.87;;;;;;;23.51;32.05;98215.16;7100912;27;20207;-82
2023/10/22 13:53:32;;;;;;;3.70;1.60;;;;;;;24.00;30.64;98218.09;7087608;27;20555;-83
2023/10/22 13:56:53;;;;;;;3.57;1.90;;;;;;;23.63;31.06;98232.00;7088491;27;20257;-83
2023/10/22 14:00:15;;;;;;;3.43;1.77;;;;;;;23.51;30.89;98232.47;7087783;27;20298;-82
2023/10/22 14:03:37;;;;;;;4.37;1.53;;;;;;;23.12;31.93;98231.22;7087440;27;20231;-83
2023/10/22 14:06:58;;;;;;;2.83;1.50;;;;;;;22.81;32.58;98241.84;7113978;27;20828;-83
2023/10/22 14:10:21;;;;;;;4.87;1.60;;;;;;;22.47;32.12;98191.75;7113498;27;20295;-83
2023/10/22 14:13:43;;;;;;;2.63;1.63;;;;;;;22.91;32.34;98233.44;7116069;27;20611;-83
2023/10/22 14:17:04;;;;;;;3.20;1.70;;;;;;;22.84;33.04;98234.94;7116755;27;20307;-83
2023/10/22 14:20:26;;;;;;;2.70;1.63;;;;;;;22.85;32.48;98244.81;7108197;27;20207;-83
2023/10/22 14:23:48;;;;;;;3.37;1.50;;;;;;;23.07;32.32;98248.56;7108179;27;20699;-82
2023/10/22 14:27:11;;;;;;;4.47;1.73;;;;;;;23.36;32.04;98240.19;7086897;27;20232;-82
2023/10/22 14:30:32;;;;;;;3.37;1.60;;;;;;;23.61;32.16;98237.00;7088401;27;20652;-82
2023/10/22 14:33:54;;;;;;;3.80;1.87;;;;;;;23.19;31.34;98248.97;7088094;27;20546;-83
2023/10/22 14:37:15;;;;;;;4.40;2.07;;;;;;;23.72;31.08;98239.25;7091363;27;20311;-82
2023/10/22 14:40:39;;;;;;;4.10;1.67;;;;;;;23.59;32.00;98239.25;7117361;27;20320;-83
2023/10/22 14:44:02;;;;;;;3.77;1.70;;;;;;;23.73;31.20;98218.84;7115894;27;20258;-83
2023/10/22 14:47:23;;;;;;;3.47;1.40;;;;;;;23.43;31.76;98249.66;7116081;27;20558;-82
2023/10/22 14:50:53;;;;;;;4.10;1.57;;;;;;;23.02;32.46;98256.09;7115788;27;20241;-82
2023/10/22 14:54:14;;;;;;;6.63;1.80;;;;;;;22.79;32.60;98200.09;7115443;27;20188;-84
2023/10/22 14:57:36;;;;;;;4.13;1.57;;;;;;;23.23;33.09;98251.94;7113025;27;20302;-82
2023/10/22 15:01:02;;;;;;;1.90;1.50;;;;;;;22.79;33.05;98248.75;7115484;27;20207;-83
2023/10/22 15:04:24;;;;;;;3.70;1.80;;;;;;;22.05;33.85;98268.63;7115163;27;20223;-82
2023/10/22 15:07:45;;;;;;;4.17;1.70;;;;;;;22.34;33.04;98265.78;7117842;27;20228;-83
2023/10/22 15:11:08;;;;;;;4.87;1.70;;;;;;;22.38;33.38;98259.44;7103016;27;20207;-83
2023/10/22 15:14:29;;;;;;;2.63;1.70;;;;;;;22.60;33.23;98270.72;7087197;27;20195;-82
2023/10/22 15:17:52;;;;;;;3.57;1.60;;;;;;;22.00;34.13;98270.59;7112389;27;20318;-83
2023/10/22 15:21:14;;;;;;;4.83;2.07;;;;;;;22.45;33.80;98278.34;7115845;27;20232;-83
2023/10/22 15:24:35;;;;;;;5.17;2.23;;;;;;;22.44;33.41;98271.22;7116097;27;20219;-83
2023/10/22 15:27:57;;;;;;;3.37;2.03;;;;;;;22.18;34.27;98258.88;7117021;27;20272;-83
2023/10/22 15:31:18;;;;;;;3.97;1.70;;;;;;;22.28;33.29;98280.72;7114776;27;20204;-82
2023/10/22 15:34:41;;;;;;;3.00;1.97;;;;;;;22.11;34.38;98274.84;7116583;27;20202;-83
2023/10/22 15:38:04;;;;;;;2.03;1.53;;;;;;;21.07;35.88;98263.75;7116000;27;20701;-82
2023/10/22 15:41:25;;;;;;;4.33;1.80;;;;;;;21.65;35.72;98290.16;7115603;27;20286;-82
2023/10/22 15:44:47;;;;;;;5.47;2.10;;;;;;;21.95;35.02;98287.13;7115969;27;20307;-81
2023/10/22 15:48:08;;;;;;;4.63;1.73;;;;;;;21.76;34.98;98225.84;7115528;27;20337;-83
2023/10/22 15:51:33;;;;;;;3.90;1.70;;;;;;;21.84;35.78;98291.88;7116322;27;20204;-83
2023/10/22 15:54:55;;;;;;;3.03;1.70;;;;;;;21.17;37.95;98301.22;7107776;27;20271;-82